Time;durP1;ratioP1;P1;durP2;ratioP2;P2;SDS_P1;SDS_P2;PMS_P1;PMS_P2;Temp;Humidity;BMP_temperature;BMP_pressure;BME280_temperature;BME280_humidity;BME280_pressure;Samples;Min_cycle;Max_cycle;Signal;HPM_P1;HPM_P2
2021/08/29 00:01:34;;;;;;;0.00;0.00;;;16.20;99.90;;;;;;6214731;23;20039;-88
2021/08/29 00:04:00;;;;;;;0.05;0.05;;;16.20;99.90;;;;;;6214281;23;20087;-88
2021/08/29 00:06:27;;;;;;;0.00;0.00;;;16.20;99.90;;;;;;6214418;23;20004;-89
2021/08/29 00:08:54;;;;;;;0.00;0.00;;;16.20;99.90;;;;;;6238985;23;20016;-89
2021/08/29 00:11:20;;;;;;;0.00;0.00;;;16.20;99.90;;;;;;6264449;23;20018;-88
2021/08/29 00:13:47;;;;;;;0.22;0.22;;;16.20;99.90;;;;;;6214087;23;20012;-89
2021/08/29 00:16:14;;;;;;;0.38;0.28;;;16.30;99.90;;;;;;6239327;23;20016;-88
2021/08/29 00:18:40;;;;;;;0.10;0.10;;;16.30;99.90;;;;;;6264010;23;20453;-89
2021/08/29 00:21:07;;;;;;;0.00;0.00;;;16.30;99.90;;;;;;6214387;23;20062;-88
2021/08/29 00:23:34;;;;;;;0.00;0.00;;;16.30;99.90;;;;;;6239107;23;20050;-88
2021/08/29 00:26:00;;;;;;;0.10;0.10;;;16.30;99.90;;;;;;6238812;23;20038;-88
2021/08/29 00:28:27;;;;;;;0.32;0.20;;;16.30;99.90;;;;;;6214231;23;20337;-88
2021/08/29 00:30:54;;;;;;;0.00;0.00;;;16.30;99.90;;;;;;6238740;23;20047;-88
2021/08/29 00:33:20;;;;;;;0.00;0.00;;;16.30;99.90;;;;;;6214555;23;20047;-88
2021/08/29 00:35:47;;;;;;;0.00;0.00;;;16.30;99.90;;;;;;6213809;23;20441;-89
2021/08/29 00:38:14;;;;;;;0.00;0.00;;;16.30;99.90;;;;;;6213794;23;20043;-89
2021/08/29 00:40:40;;;;;;;0.00;0.00;;;16.20;99.90;;;;;;6214140;23;20340;-88
2021/08/29 00:43:07;;;;;;;0.00;0.00;;;16.20;99.90;;;;;;6213461;23;20023;-89
2021/08/29 00:45:36;;;;;;;0.00;0.00;;;16.30;99.90;;;;;;6214166;23;20016;-88
2021/08/29 00:48:09;;;;;;;0.00;0.00;;;16.30;99.90;;;;;;6238397;23;20181;-88
2021/08/29 00:50:41;;;;;;;0.60;0.25;;;16.30;99.90;;;;;;6264061;23;20023;-88
2021/08/29 00:53:08;;;;;;;0.00;0.00;;;16.30;99.90;;;;;;6239962;23;20008;-87
2021/08/29 00:55:35;;;;;;;1.88;0.65;;;16.30;99.90;;;;;;6238845;23;20095;-88
2021/08/29 00:58:02;;;;;;;0.00;0.00;;;16.30;99.90;;;;;;6263568;23;20023;-88
2021/08/29 01:00:32;;;;;;;0.00;0.00;;;16.30;99.90;;;;;;6263698;23;20023;-89
2021/08/29 01:02:59;;;;;;;0.13;0.13;;;16.30;99.90;;;;;;6238386;23;20016;-88
2021/08/29 01:05:30;;;;;;;3.50;0.50;;;16.30;99.90;;;;;;6238661;23;20040;-88
2021/08/29 01:08:00;;;;;;;0.00;0.00;;;16.30;99.90;;;;;;6263527;23;20012;-88
2021/08/29 01:10:33;;;;;;;0.03;0.03;;;16.30;99.90;;;;;;6263728;23;20015;-88
2021/08/29 01:13:00;;;;;;;0.15;0.10;;;16.30;99.90;;;;;;6263234;23;20047;-88
2021/08/29 01:15:31;;;;;;;0.00;0.00;;;16.30;99.90;;;;;;6213957;23;20012;-88
2021/08/29 01:18:00;;;;;;;0.73;0.40;;;16.30;99.90;;;;;;6263004;23;20453;-88
2021/08/29 01:20:50;;;;;;;0.20;0.10;;;16.30;99.90;;;;;;6263633;23;20012;-87
2021/08/29 01:23:19;;;;;;;0.43;0.43;;;16.30;99.90;;;;;;6263773;23;20035;-88
2021/08/29 01:25:54;;;;;;;0.30;0.30;;;16.30;99.90;;;;;;6263501;23;20016;-88
2021/08/29 01:28:26;;;;;;;0.05;0.00;;;16.30;99.90;;;;;;6264137;23;20008;-88
2021/08/29 01:30:54;;;;;;;0.00;0.00;;;16.30;99.90;;;;;;6263641;23;20019;-88
2021/08/29 01:33:22;;;;;;;0.00;0.00;;;16.30;99.90;;;;;;6214202;23;20008;-89
2021/08/29 01:35:49;;;;;;;0.10;0.10;;;16.20;99.90;;;;;;6213911;23;20051;-89
2021/08/29 01:38:16;;;;;;;0.08;0.00;;;16.30;99.90;;;;;;6238556;23;20012;-89
2021/08/29 01:40:44;;;;;;;0.10;0.10;;;16.30;99.90;;;;;;6213603;23;20028;-88
2021/08/29 01:43:11;;;;;;;0.22;0.10;;;16.30;99.90;;;;;;6237902;23;20047;-88
2021/08/29 01:45:38;;;;;;;0.75;0.50;;;16.30;99.90;;;;;;6238305;23;20016;-87
2021/08/29 01:48:05;;;;;;;0.25;0.15;;;16.30;99.90;;;;;;6213335;23;20012;-89
2021/08/29 01:50:32;;;;;;;0.52;0.32;;;16.30;99.90;;;;;;6213459;23;20095;-88
2021/08/29 01:52:59;;;;;;;0.10;0.10;;;16.30;99.90;;;;;;6238193;23;20128;-88
2021/08/29 01:55:25;;;;;;;0.00;0.00;;;16.30;99.90;;;;;;6213458;23;20022;-88
2021/08/29 01:57:52;;;;;;;0.00;0.00;;;16.30;99.90;;;;;;6213176;23;20456;-89
2021/08/29 02:00:20;;;;;;;0.00;0.00;;;16.30;99.90;;;;;;6213870;23;20077;-88
2021/08/29 02:02:46;;;;;;;0.03;0.03;;;16.30;99.90;;;;;;6238568;23;20048;-88
2021/08/29 02:05:13;;;;;;;0.08;0.08;;;16.30;99.90;;;;;;6237661;23;20019;-88
2021/08/29 02:07:44;;;;;;;0.10;0.10;;;16.30;99.90;;;;;;6263033;23;20019;-89
2021/08/29 02:10:15;;;;;;;0.00;0.00;;;16.30;99.90;;;;;;6262802;23;20314;-89
2021/08/29 02:12:49;;;;;;;0.63;0.20;;;16.30;99.90;;;;;;6263131;23;20012;-88
2021/08/29 02:15:21;;;;;;;0.00;0.00;;;16.20;99.90;;;;;;6262755;23;20044;-88
2021/08/29 02:17:48;;;;;;;0.00;0.00;;;16.20;99.90;;;;;;6263177;23;20344;-88
2021/08/29 02:20:21;;;;;;;0.00;0.00;;;16.20;99.90;;;;;;6237626;23;20102;-88
2021/08/29 02:22:49;;;;;;;0.00;0.00;;;16.20;99.90;;;;;;6262898;23;20048;-88
2021/08/29 02:25:16;;;;;;;0.00;0.00;;;16.20;99.90;;;;;;6262702;23;20008;-88
2021/08/29 02:27:43;;;;;;;0.00;0.00;;;16.20;99.90;;;;;;6213133;23;20501;-88
2021/08/29 02:30:11;;;;;;;0.00;0.00;;;16.20;99.90;;;;;;6212793;23;20087;-88
2021/08/29 02:32:39;;;;;;;0.00;0.00;;;16.20;99.90;;;;;;6213179;23;20012;-88
2021/08/29 02:35:07;;;;;;;0.00;0.00;;;16.10;99.90;;;;;;6262988;23;20099;-88
2021/08/29 02:37:34;;;;;;;0.00;0.00;;;16.20;99.90;;;;;;6237879;23;20524;-88
2021/08/29 02:40:04;;;;;;;0.00;0.00;;;16.20;99.90;;;;;;6212970;23;20044;-88
2021/08/29 02:42:31;;;;;;;0.00;0.00;;;16.20;99.90;;;;;;6262558;23;20047;-88
2021/08/29 02:45:05;;;;;;;0.00;0.00;;;16.10;99.90;;;;;;6237567;23;20016;-89
2021/08/29 02:47:32;;;;;;;0.25;0.10;;;16.10;99.90;;;;;;6263296;23;20440;-88
2021/08/29 02:49:58;;;;;;;0.00;0.00;;;16.10;99.90;;;;;;6237475;23;20061;-89
2021/08/29 02:52:25;;;;;;;0.00;0.00;;;16.10;99.90;;;;;;6263148;23;20318;-88
2021/08/29 02:54:53;;;;;;;0.00;0.00;;;16.20;99.90;;;;;;6262793;23;20078;-88
2021/08/29 02:57:21;;;;;;;0.00;0.00;;;16.20;99.90;;;;;;6262665;23;20095;-88
2021/08/29 02:59:48;;;;;;;0.00;0.00;;;16.20;99.90;;;;;;6237646;23;20012;-88
2021/08/29 03:02:15;;;;;;;0.05;0.05;;;16.20;99.90;;;;;;6238792;23;20015;-88
2021/08/29 03:04:42;;;;;;;0.00;0.00;;;16.10;99.90;;;;;;6239897;23;20019;-88
2021/08/29 03:07:09;;;;;;;0.00;0.00;;;16.10;99.90;;;;;;6214647;23;20460;-88
2021/08/29 03:09:36;;;;;;;0.03;0.03;;;16.20;99.90;;;;;;6239920;23;20008;-88
2021/08/29 03:12:08;;;;;;;0.00;0.00;;;16.10;99.90;;;;;;6239324;23;20016;-89
2021/08/29 03:14:36;;;;;;;0.00;0.00;;;16.10;99.90;;;;;;6264850;23;20016;-88
2021/08/29 03:17:03;;;;;;;0.00;0.00;;;16.10;99.90;;;;;;6214667;23;20515;-89
2021/08/29 03:19:31;;;;;;;0.00;0.00;;;16.10;99.90;;;;;;6239902;23;20012;-88
2021/08/29 03:21:58;;;;;;;0.10;0.10;;;16.10;99.90;;;;;;6239624;23;20095;-88
2021/08/29 03:24:25;;;;;;;2.42;0.10;;;16.10;99.90;;;;;;6239351;23;20011;-88
2021/08/29 03:26:52;;;;;;;0.00;0.00;;;16.10;99.90;;;;;;6214948;23;20008;-89
2021/08/29 03:29:19;;;;;;;0.52;0.40;;;16.00;99.90;;;;;;6214610;23;20025;-87
2021/08/29 03:31:46;;;;;;;0.00;0.00;;;16.00;99.90;;;;;;6289959;23;20016;-88
2021/08/29 03:34:16;;;;;;;0.00;0.00;;;16.00;99.90;;;;;;6214531;23;20387;-88
2021/08/29 03:36:43;;;;;;;0.08;0.08;;;16.00;99.90;;;;;;6264491;23;20018;-88
2021/08/29 03:39:14;;;;;;;0.00;0.00;;;15.90;99.90;;;;;;6264195;23;20471;-88
2021/08/29 03:41:43;;;;;;;0.00;0.00;;;15.90;99.90;;;;;;6239587;23;20027;-89
2021/08/29 03:44:12;;;;;;;0.00;0.00;;;16.00;99.90;;;;;;6214654;23;20020;-88
2021/08/29 03:46:40;;;;;;;0.00;0.00;;;15.90;99.90;;;;;;6214872;23;20523;-88
2021/08/29 03:49:07;;;;;;;0.05;0.05;;;15.90;99.90;;;;;;6239330;23;20012;-89
2021/08/29 03:51:37;;;;;;;0.00;0.00;;;16.00;99.90;;;;;;6214957;23;20012;-88
2021/08/29 03:54:06;;;;;;;0.20;0.20;;;15.90;99.90;;;;;;6240107;23;20020;-88
2021/08/29 03:56:34;;;;;;;0.00;0.00;;;15.90;99.90;;;;;;6214609;23;20012;-87
2021/08/29 03:59:02;;;;;;;0.25;0.25;;;15.90;99.90;;;;;;6239332;23;20437;-88
2021/08/29 04:01:29;;;;;;;0.00;0.00;;;15.80;99.90;;;;;;6238843;23;20020;-88
2021/08/29 04:03:56;;;;;;;0.00;0.00;;;15.80;99.90;;;;;;6240129;23;20334;-89
2021/08/29 04:06:25;;;;;;;0.68;0.50;;;15.80;99.90;;;;;;6214098;23;20447;-88
2021/08/29 04:08:57;;;;;;;0.00;0.00;;;15.70;99.90;;;;;;6214473;23;20004;-88
2021/08/29 04:11:28;;;;;;;0.00;0.00;;;15.60;99.90;;;;;;6238841;23;20021;-89
2021/08/29 04:13:55;;;;;;;0.13;0.10;;;15.60;99.90;;;;;;6239254;23;20019;-89
2021/08/29 04:16:23;;;;;;;0.00;0.00;;;15.50;99.90;;;;;;6238960;23;20015;-89
2021/08/29 04:18:50;;;;;;;0.00;0.00;;;15.40;99.90;;;;;;6189910;23;20020;-88
2021/08/29 04:21:23;;;;;;;1.25;0.60;;;15.40;99.90;;;;;;6189791;23;20012;-88
2021/08/29 04:23:50;;;;;;;0.00;0.00;;;15.40;99.90;;;;;;6239262;23;20016;-88
2021/08/29 04:26:17;;;;;;;0.00;0.00;;;15.30;99.90;;;;;;6238648;23;20008;-89
2021/08/29 04:28:45;;;;;;;1.88;0.75;;;15.20;99.90;;;;;;6239102;23;20078;-89
2021/08/29 04:31:15;;;;;;;0.35;0.30;;;15.10;99.90;;;;;;6189666;23;20051;-88
2021/08/29 04:33:42;;;;;;;0.00;0.00;;;15.10;99.90;;;;;;6239061;23;20388;-88
2021/08/29 04:36:09;;;;;;;0.00;0.00;;;15.00;99.90;;;;;;6239003;23;20020;-88
2021/08/29 04:38:37;;;;;;;0.00;0.00;;;15.00;99.90;;;;;;6238587;23;20038;-88
2021/08/29 04:41:04;;;;;;;0.00;0.00;;;14.90;99.90;;;;;;6238865;23;20022;-88
2021/08/29 04:43:31;;;;;;;0.00;0.00;;;14.80;99.90;;;;;;6255931;23;20441;-88
2021/08/29 04:45:58;;;;;;;0.10;0.10;;;14.80;99.90;;;;;;6238869;23;20138;-88
2021/08/29 04:48:24;;;;;;;0.00;0.00;;;14.80;99.90;;;;;;6238699;23;20031;-88
2021/08/29 04:50:51;;;;;;;0.05;0.05;;;14.80;99.90;;;;;;6214106;23;20332;-88
2021/08/29 04:53:18;;;;;;;0.00;0.00;;;14.70;99.90;;;;;;6263541;23;20016;-89
2021/08/29 04:55:45;;;;;;;0.00;0.00;;;14.70;99.90;;;;;;6263195;23;20019;-88
2021/08/29 04:58:11;;;;;;;0.00;0.00;;;14.70;99.90;;;;;;6262958;23;20055;-88
2021/08/29 05:00:38;;;;;;;0.00;0.00;;;14.70;99.90;;;;;;6237618;23;20437;-88
2021/08/29 05:03:05;;;;;;;0.10;0.10;;;14.70;99.90;;;;;;6237790;23;20530;-89
2021/08/29 05:05:32;;;;;;;0.00;0.00;;;14.70;99.90;;;;;;6237644;23;20008;-88
2021/08/29 05:07:58;;;;;;;0.00;0.00;;;14.70;99.90;;;;;;6237958;23;20019;-88
2021/08/29 05:10:25;;;;;;;0.00;0.00;;;14.60;99.90;;;;;;6263022;23;20012;-88
2021/08/29 05:12:52;;;;;;;0.00;0.00;;;14.70;99.90;;;;;;6238865;23;20090;-88
2021/08/29 05:15:19;;;;;;;0.00;0.00;;;14.60;99.90;;;;;;6212921;23;20050;-88
2021/08/29 05:17:46;;;;;;;0.00;0.00;;;14.60;99.90;;;;;;6237792;23;20353;-88
2021/08/29 05:20:13;;;;;;;0.00;0.00;;;14.60;99.90;;;;;;6213870;23;20016;-87
2021/08/29 05:22:39;;;;;;;0.00;0.00;;;14.60;99.90;;;;;;6238170;23;20471;-88
2021/08/29 05:25:07;;;;;;;0.00;0.00;;;14.70;99.90;;;;;;6238643;23;20012;-87
2021/08/29 05:27:33;;;;;;;0.00;0.00;;;14.60;99.90;;;;;;6213321;23;20069;-88
2021/08/29 05:30:00;;;;;;;0.00;0.00;;;14.70;99.90;;;;;;6238296;23;20012;-88
2021/08/29 05:32:27;;;;;;;0.00;0.00;;;14.80;99.90;;;;;;6238094;23;20468;-88
2021/08/29 05:34:54;;;;;;;0.00;0.00;;;14.80;99.90;;;;;;6238421;23;20019;-87
2021/08/29 05:37:20;;;;;;;0.00;0.00;;;14.80;99.90;;;;;;6263098;23;20094;-88
2021/08/29 05:39:47;;;;;;;0.00;0.00;;;14.90;99.90;;;;;;6214059;23;20016;-87
2021/08/29 05:42:14;;;;;;;0.00;0.00;;;14.90;99.90;;;;;;6213442;23;20460;-88
2021/08/29 05:44:40;;;;;;;0.20;0.20;;;14.90;99.90;;;;;;6213549;23;20730;-88
2021/08/29 05:47:07;;;;;;;0.00;0.00;;;15.00;99.90;;;;;;6288757;23;20066;-87
2021/08/29 05:49:34;;;;;;;0.00;0.00;;;15.00;99.90;;;;;;6237947;23;20008;-87
2021/08/29 05:52:01;;;;;;;0.00;0.00;;;15.00;99.90;;;;;;6263463;23;20016;-88
2021/08/29 05:54:27;;;;;;;0.10;0.10;;;15.10;99.90;;;;;;6213247;23;20094;-88
2021/08/29 05:56:54;;;;;;;0.00;0.00;;;15.10;99.90;;;;;;6263507;23;20012;-88
2021/08/29 05:59:21;;;;;;;0.00;0.00;;;15.10;99.90;;;;;;6263259;23;20044;-88
2021/08/29 06:01:47;;;;;;;0.00;0.00;;;15.10;99.90;;;;;;6237801;23;20345;-88
2021/08/29 06:04:14;;;;;;;0.40;0.38;;;15.10;99.90;;;;;;6238517;23;20341;-89
2021/08/29 06:06:41;;;;;;;0.00;0.00;;;15.10;99.90;;;;;;6238208;23;20015;-89
2021/08/29 06:09:08;;;;;;;0.00;0.00;;;15.10;99.90;;;;;;6213597;23;20012;-90
2021/08/29 06:11:34;;;;;;;0.00;0.00;;;15.10;99.90;;;;;;6262992;23;20047;-90
2021/08/29 06:14:01;;;;;;;0.00;0.00;;;15.20;99.90;;;;;;6238424;23;20043;-90
2021/08/29 06:16:28;;;;;;;0.00;0.00;;;15.20;99.90;;;;;;6263026;23;20406;-89
2021/08/29 06:18:55;;;;;;;0.10;0.10;;;15.20;99.90;;;;;;6263383;23;20122;-89
2021/08/29 06:21:21;;;;;;;0.00;0.00;;;15.20;99.90;;;;;;6238085;23;20022;-88
2021/08/29 06:23:48;;;;;;;0.00;0.00;;;15.20;99.90;;;;;;6213263;23;20456;-88
2021/08/29 06:26:15;;;;;;;3.33;0.45;;;15.30;99.90;;;;;;6213727;23;20008;-87
2021/08/29 06:28:41;;;;;;;0.00;0.00;;;15.30;99.90;;;;;;6213153;23;20039;-88
2021/08/29 06:31:08;;;;;;;0.00;0.00;;;15.30;99.90;;;;;;6238102;23;20063;-88
2021/08/29 06:33:36;;;;;;;0.03;0.03;;;15.30;99.90;;;;;;6212923;23;20015;-88
2021/08/29 06:36:03;;;;;;;0.00;0.00;;;15.30;99.90;;;;;;6237551;23;20012;-88
2021/08/29 06:38:30;;;;;;;0.00;0.00;;;15.30;99.90;;;;;;6237799;23;20471;-88
2021/08/29 06:40:56;;;;;;;6.25;0.17;;;15.30;99.90;;;;;;6238050;23;20395;-88
2021/08/29 06:43:23;;;;;;;0.00;0.00;;;15.30;99.90;;;;;;6237791;23;20019;-87
2021/08/29 06:45:50;;;;;;;0.00;0.00;;;15.30;99.90;;;;;;6287720;23;20441;-87
2021/08/29 06:48:16;;;;;;;0.00;0.00;;;15.30;99.90;;;;;;6213181;23;20062;-87
2021/08/29 06:50:43;;;;;;;0.00;0.00;;;15.40;99.90;;;;;;6237511;23;20043;-88
2021/08/29 06:53:10;;;;;;;0.00;0.00;;;15.40;99.90;;;;;;6213060;23;20016;-87
2021/08/29 06:55:36;;;;;;;0.00;0.00;;;15.50;99.90;;;;;;6212725;23;20106;-87
2021/08/29 06:58:03;;;;;;;0.08;0.08;;;15.50;99.90;;;;;;6237826;23;20012;-87
2021/08/29 07:00:30;;;;;;;0.00;0.00;;;15.50;99.90;;;;;;6212895;23;20052;-88
2021/08/29 07:03:06;;;;;;;0.00;0.00;;;15.50;99.90;;;;;;6212926;23;20019;-87
2021/08/29 07:05:32;;;;;;;0.00;0.00;;;15.50;99.90;;;;;;6236931;23;20091;-88
2021/08/29 07:07:59;;;;;;;0.00;0.00;;;15.60;99.90;;;;;;6238055;23;20051;-87
2021/08/29 07:10:26;;;;;;;0.00;0.00;;;15.60;99.90;;;;;;6213391;23;20066;-87
2021/08/29 07:12:52;;;;;;;0.10;0.10;;;15.60;99.90;;;;;;6237631;23;20008;-87
2021/08/29 07:15:20;;;;;;;0.10;0.10;;;15.70;99.90;;;;;;6237618;23;20440;-87
2021/08/29 07:17:56;;;;;;;0.00;0.00;;;15.60;99.90;;;;;;6262964;23;20023;-87
2021/08/29 07:20:23;;;;;;;2.63;0.70;;;15.70;99.90;;;;;;6263132;23;20068;-87
2021/08/29 07:22:49;;;;;;;0.00;0.00;;;15.70;99.90;;;;;;6212397;23;20397;-87
2021/08/29 07:25:24;;;;;;;0.00;0.00;;;15.80;99.90;;;;;;6237766;23;20094;-87
2021/08/29 07:27:52;;;;;;;0.00;0.00;;;16.00;99.90;;;;;;6263788;23;20008;-85
2021/08/29 07:30:19;;;;;;;0.00;0.00;;;15.90;99.90;;;;;;6236814;23;20023;-86
2021/08/29 07:32:45;;;;;;;0.05;0.05;;;15.90;99.90;;;;;;6261516;23;20046;-86
2021/08/29 07:35:12;;;;;;;0.00;0.00;;;15.90;99.90;;;;;;6212257;23;20016;-87
2021/08/29 07:37:39;;;;;;;0.00;0.00;;;16.00;99.90;;;;;;6212301;23;20055;-87
2021/08/29 07:40:07;;;;;;;0.00;0.00;;;15.90;99.90;;;;;;6212881;23;20012;-87
2021/08/29 07:42:33;;;;;;;0.00;0.00;;;15.90;99.90;;;;;;6234157;23;20013;-87
2021/08/29 07:45:00;;;;;;;0.00;0.00;;;15.90;99.90;;;;;;6212532;23;20012;-86
2021/08/29 07:47:27;;;;;;;0.00;0.00;;;15.90;99.90;;;;;;6213473;23;20008;-86
2021/08/29 07:49:53;;;;;;;0.13;0.03;;;15.90;99.90;;;;;;6213958;23;20008;-86
2021/08/29 07:52:20;;;;;;;0.30;0.30;;;15.90;99.90;;;;;;6214477;23;20054;-86
2021/08/29 07:54:47;;;;;;;0.00;0.00;;;15.90;99.90;;;;;;6214279;23;20015;-87
2021/08/29 07:57:14;;;;;;;0.00;0.00;;;15.80;99.90;;;;;;6214408;23;20012;-87
2021/08/29 07:59:40;;;;;;;0.00;0.00;;;15.80;99.90;;;;;;6213816;23;20087;-87
2021/08/29 08:02:07;;;;;;;0.00;0.00;;;15.90;99.90;;;;;;6239668;23;20066;-87
2021/08/29 08:04:34;;;;;;;0.08;0.08;;;15.90;99.90;;;;;;6239133;23;20008;-87
2021/08/29 08:07:01;;;;;;;0.03;0.03;;;15.90;99.90;;;;;;6238944;23;20062;-87
2021/08/29 08:09:27;;;;;;;0.10;0.08;;;15.90;99.90;;;;;;6239265;23;20387;-87
2021/08/29 08:11:54;;;;;;;0.00;0.00;;;15.90;99.90;;;;;;6264170;23;20341;-87
2021/08/29 08:14:21;;;;;;;0.00;0.00;;;15.90;99.90;;;;;;6214338;23;20514;-88
2021/08/29 08:16:47;;;;;;;0.00;0.00;;;15.90;99.90;;;;;;6238918;23;20012;-87
2021/08/29 08:19:14;;;;;;;0.00;0.00;;;15.90;99.90;;;;;;6264360;23;20016;-88
2021/08/29 08:21:41;;;;;;;0.00;0.00;;;15.90;99.90;;;;;;6214437;23;20016;-88
2021/08/29 08:24:08;;;;;;;0.00;0.00;;;15.90;99.90;;;;;;6239141;23;20408;-87
2021/08/29 08:26:34;;;;;;;0.05;0.05;;;15.90;99.90;;;;;;6214349;23;20012;-88
2021/08/29 08:29:01;;;;;;;0.00;0.00;;;15.80;99.90;;;;;;6238890;23;20091;-87
2021/08/29 08:31:28;;;;;;;0.55;0.10;;;15.90;99.90;;;;;;6214391;23;20020;-88
2021/08/29 08:33:54;;;;;;;0.00;0.00;;;15.80;99.90;;;;;;6214110;23;20047;-87
2021/08/29 08:36:21;;;;;;;0.00;0.00;;;15.90;99.90;;;;;;6214387;23;20022;-88
2021/08/29 08:38:48;;;;;;;0.08;0.08;;;15.80;99.90;;;;;;6213898;23;20091;-88
2021/08/29 08:41:14;;;;;;;0.00;0.00;;;15.80;99.90;;;;;;6239271;23;20060;-88
2021/08/29 08:43:42;;;;;;;0.03;0.03;;;15.80;99.90;;;;;;6239035;23;20019;-88
2021/08/29 08:46:11;;;;;;;0.00;0.00;;;15.90;99.90;;;;;;6238974;23;20013;-88
2021/08/29 08:48:39;;;;;;;0.00;0.00;;;15.90;99.90;;;;;;6264148;23;20012;-88
2021/08/29 08:51:11;;;;;;;0.00;0.00;;;15.90;99.90;;;;;;6238928;23;20064;-88
2021/08/29 08:53:42;;;;;;;0.43;0.10;;;15.90;99.90;;;;;;6264025;23;20008;-88
2021/08/29 08:56:09;;;;;;;0.00;0.00;;;15.90;99.90;;;;;;6263852;23;20105;-88
2021/08/29 08:58:39;;;;;;;0.10;0.10;;;16.00;99.90;;;;;;6238590;23;20014;-88
2021/08/29 09:01:07;;;;;;;0.00;0.00;;;16.00;99.90;;;;;;6239325;23;20012;-88
2021/08/29 09:03:35;;;;;;;0.00;0.00;;;16.10;99.90;;;;;;6239256;23;20012;-89
2021/08/29 09:06:04;;;;;;;0.00;0.00;;;16.10;99.90;;;;;;6238837;23;20055;-88
2021/08/29 09:08:33;;;;;;;0.10;0.10;;;16.10;99.90;;;;;;6264211;23;20019;-88
2021/08/29 09:11:00;;;;;;;0.45;0.15;;;16.20;99.90;;;;;;6263462;23;20518;-88
2021/08/29 09:13:47;;;;;;;0.00;0.00;;;16.30;99.90;;;;;;6263843;23;20012;-88
2021/08/29 09:16:16;;;;;;;0.45;0.28;;;16.30;99.90;;;;;;6242587;23;20102;-88
2021/08/29 09:19:00;;;;;;;0.00;0.00;;;16.40;99.90;;;;;;6263913;23;20433;-88
2021/08/29 09:21:35;;;;;;;0.00;0.00;;;16.30;99.90;;;;;;6263773;23;20532;-88
2021/08/29 09:24:07;;;;;;;;;;;16.40;99.90;;;;;;6264422;23;20105;-88
2021/08/29 09:26:39;;;;;;;0.00;0.00;;;16.40;99.90;;;;;;6264206;23;19911;-88
2021/08/29 09:29:07;;;;;;;0.00;0.00;;;16.50;99.90;;;;;;6263134;23;20008;-88
2021/08/29 09:31:52;;;;;;;0.00;0.00;;;16.50;99.90;;;;;;6288990;23;20051;-88
2021/08/29 09:34:20;;;;;;;0.40;0.20;;;16.60;99.90;;;;;;6238695;23;20015;-88
2021/08/29 09:36:50;;;;;;;0.00;0.00;;;16.60;99.90;;;;;;6238487;23;20468;-89
2021/08/29 09:39:20;;;;;;;0.00;0.00;;;16.60;99.90;;;;;;6263456;23;20146;-88
2021/08/29 09:41:47;;;;;;;0.00;0.00;;;16.70;99.90;;;;;;6263806;23;20019;-89
2021/08/29 09:44:19;;;;;;;0.08;0.08;;;16.70;99.90;;;;;;6263205;23;20062;-88
2021/08/29 09:46:57;;;;;;;0.00;0.00;;;16.70;99.90;;;;;;6238694;23;20009;-88
2021/08/29 09:49:33;;;;;;;0.30;0.22;;;16.70;99.90;;;;;;6263680;23;20015;-88
2021/08/29 09:52:01;;;;;;;0.00;0.00;;;16.70;99.90;;;;;;6263017;23;20062;-88
2021/08/29 09:54:43;;;;;;;0.08;0.08;;;16.70;99.90;;;;;;6238765;23;20528;-87
2021/08/29 09:57:12;;;;;;;0.35;0.10;;;16.70;99.90;;;;;;6263335;23;20026;-88
2021/08/29 09:59:50;;;;;;;0.00;0.00;;;16.70;99.90;;;;;;6263467;23;20070;-88
2021/08/29 10:02:28;;;;;;;0.00;0.00;;;16.70;99.90;;;;;;6238118;23;20042;-88
2021/08/29 10:05:14;;;;;;;0.00;0.00;;;16.70;99.90;;;;;;6263538;23;20048;-88
2021/08/29 10:08:04;;;;;;;0.00;0.00;;;16.70;99.90;;;;;;6263164;23;20008;-87
2021/08/29 10:10:32;;;;;;;0.10;0.10;;;16.70;99.90;;;;;;6263631;23;20012;-87
2021/08/29 10:12:59;;;;;;;0.00;0.00;;;16.60;99.90;;;;;;6238010;23;20016;-88
2021/08/29 10:15:26;;;;;;;0.10;0.10;;;16.60;99.90;;;;;;6263984;23;20047;-87
2021/08/29 10:17:58;;;;;;;0.00;0.00;;;16.60;99.90;;;;;;6263105;23;20016;-88
2021/08/29 10:20:25;;;;;;;0.03;0.03;;;16.60;99.90;;;;;;6263298;23;20012;-87
2021/08/29 10:22:53;;;;;;;0.10;0.00;;;16.60;99.90;;;;;;6263258;23;20016;-88
2021/08/29 10:25:20;;;;;;;0.00;0.00;;;16.60;99.90;;;;;;6262935;23;20345;-88
2021/08/29 10:28:14;;;;;;;0.00;0.00;;;16.60;99.90;;;;;;6263131;23;20035;-88
2021/08/29 10:30:42;;;;;;;0.00;0.00;;;16.60;99.90;;;;;;6263153;23;20019;-88
2021/08/29 10:33:15;;;;;;;0.00;0.00;;;16.60;99.90;;;;;;6237709;23;20020;-88
2021/08/29 10:35:45;;;;;;;0.30;0.10;;;16.50;99.90;;;;;;6263113;23;20054;-88
2021/08/29 10:38:12;;;;;;;0.20;0.10;;;16.50;99.90;;;;;;6238282;23;20077;-88
2021/08/29 10:40:39;;;;;;;0.00;0.00;;;16.50;99.90;;;;;;6213456;23;20052;-88
2021/08/29 10:43:06;;;;;;;0.00;0.00;;;16.60;99.90;;;;;;6212712;23;20119;-88
2021/08/29 10:45:32;;;;;;;0.00;0.00;;;16.60;99.90;;;;;;6238198;23;20048;-88
2021/08/29 10:48:00;;;;;;;0.00;0.00;;;16.60;99.90;;;;;;6213002;23;20019;-88
2021/08/29 10:50:28;;;;;;;0.00;0.00;;;16.60;99.90;;;;;;6263315;23;20054;-88
2021/08/29 10:52:55;;;;;;;0.00;0.00;;;16.60;99.90;;;;;;6213739;23;20016;-88
2021/08/29 10:55:29;;;;;;;0.00;0.00;;;16.60;99.90;;;;;;6238394;23;20016;-88
2021/08/29 10:58:03;;;;;;;0.00;0.00;;;16.60;99.90;;;;;;6288507;23;20023;-88
2021/08/29 11:00:31;;;;;;;0.00;0.00;;;16.60;99.90;;;;;;6213367;23;20016;-89
2021/08/29 11:02:57;;;;;;;1.08;0.30;;;16.70;99.90;;;;;;6262906;23;20508;-88
2021/08/29 11:05:27;;;;;;;0.00;0.00;;;16.90;99.90;;;;;;6212989;23;20050;-88
2021/08/29 11:07:57;;;;;;;6.22;0.15;;;17.00;99.90;;;;;;6263043;23;20062;-88
2021/08/29 11:10:39;;;;;;;0.00;0.00;;;17.10;99.90;;;;;;6262775;23;20012;-88
2021/08/29 11:13:27;;;;;;;0.10;0.10;;;17.20;99.90;;;;;;6262353;23;20437;-88
2021/08/29 11:16:11;;;;;;;0.00;0.00;;;17.20;99.90;;;;;;6262663;23;20066;-87
2021/08/29 11:19:00;;;;;;;0.00;0.00;;;17.30;99.90;;;;;;6262791;23;20023;-87
2021/08/29 11:21:48;;;;;;;0.10;0.10;;;17.40;99.90;;;;;;6262646;23;20100;-88
2021/08/29 11:24:47;;;;;;;0.00;0.00;;;17.50;99.90;;;;;;6243691;23;20008;-88
2021/08/29 11:27:44;;;;;;;0.00;0.00;;;17.50;99.90;;;;;;6264675;23;20380;-88
2021/08/29 11:30:15;;;;;;;0.00;0.00;;;17.60;99.90;;;;;;6256869;23;20019;-87
2021/08/29 11:32:54;;;;;;;0.00;0.00;;;17.70;99.90;;;;;;6264918;23;20012;-88
2021/08/29 11:35:21;;;;;;;0.00;0.00;;;17.80;99.90;;;;;;6264607;23;20495;-88
2021/08/29 11:38:02;;;;;;;0.25;0.10;;;17.70;99.90;;;;;;6264713;23;20012;-88
2021/08/29 11:40:59;;;;;;;0.00;0.00;;;17.70;99.90;;;;;;6264462;23;20023;-88
2021/08/29 11:43:26;;;;;;;0.00;0.00;;;17.70;99.90;;;;;;6264720;23;20012;-88
2021/08/29 11:46:12;;;;;;;0.10;0.10;;;17.60;99.90;;;;;;6264842;23;20067;-88
2021/08/29 11:49:03;;;;;;;0.00;0.00;;;17.50;99.90;;;;;;6266807;23;20502;-89
2021/08/29 11:51:34;;;;;;;0.00;0.00;;;17.50;99.90;;;;;;6264661;23;20034;-88
2021/08/29 11:54:06;;;;;;;0.00;0.00;;;17.40;99.90;;;;;;6290757;23;20012;-89
2021/08/29 11:56:34;;;;;;;0.10;0.10;;;17.40;99.90;;;;;;6265417;23;20016;-88
2021/08/29 11:59:03;;;;;;;0.00;0.00;;;17.40;99.90;;;;;;6264922;23;20019;-88
2021/08/29 12:01:31;;;;;;;0.08;0.08;;;17.50;99.90;;;;;;6264126;23;20170;-88
2021/08/29 12:04:00;;;;;;;0.00;0.00;;;17.50;99.90;;;;;;6264642;23;20437;-88
2021/08/29 12:06:45;;;;;;;0.00;0.00;;;17.50;99.90;;;;;;6264293;23;20008;-88
2021/08/29 12:09:36;;;;;;;0.10;0.03;;;17.50;99.90;;;;;;6264310;23;20012;-88
2021/08/29 12:12:05;;;;;;;0.00;0.00;;;17.60;99.90;;;;;;6264963;23;20019;-89
2021/08/29 12:14:32;;;;;;;0.08;0.08;;;17.80;99.90;;;;;;6239426;23;20406;-89
2021/08/29 12:17:01;;;;;;;1.10;0.57;;;17.90;99.90;;;;;;6264494;23;20103;-89
2021/08/29 12:19:35;;;;;;;0.10;0.10;;;17.90;99.90;;;;;;6264172;23;20008;-89
2021/08/29 12:22:10;;;;;;;0.32;0.22;;;17.90;99.90;;;;;;6264366;23;20528;-88
2021/08/29 12:24:39;;;;;;;0.05;0.05;;;17.80;99.90;;;;;;6239394;23;20047;-88
2021/08/29 12:27:14;;;;;;;0.10;0.10;;;17.70;99.90;;;;;;6239478;23;20012;-88
2021/08/29 12:29:52;;;;;;;0.10;0.10;;;17.70;99.90;;;;;;6264449;23;20008;-88
2021/08/29 12:32:22;;;;;;;0.10;0.10;;;17.70;99.90;;;;;;6264408;23;20146;-89
2021/08/29 12:35:04;;;;;;;0.32;0.28;;;17.80;99.90;;;;;;6263656;23;20016;-88
2021/08/29 12:37:34;;;;;;;0.20;0.20;;;17.90;99.90;;;;;;6263982;23;20015;-89
2021/08/29 12:40:04;;;;;;;0.00;0.00;;;18.10;99.90;;;;;;6239675;23;20018;-89
2021/08/29 12:42:32;;;;;;;0.00;0.00;;;18.30;99.90;;;;;;6263732;23;20104;-89
2021/08/29 12:45:01;;;;;;;0.17;0.17;;;18.50;99.90;;;;;;6264381;23;20027;-89
2021/08/29 12:47:30;;;;;;;0.10;0.10;;;18.70;99.90;;;;;;6263975;23;20089;-89
2021/08/29 12:49:58;;;;;;;0.00;0.00;;;18.70;99.90;;;;;;6264314;23;20008;-88
2021/08/29 12:52:53;;;;;;;0.05;0.05;;;18.70;99.90;;;;;;6239046;23;20012;-89
2021/08/29 12:55:23;;;;;;;0.13;0.10;;;18.60;99.90;;;;;;6259464;23;20022;-89
2021/08/29 12:58:03;;;;;;;0.10;0.10;;;18.40;99.90;;;;;;6264243;23;20077;-89
2021/08/29 13:00:42;;;;;;;0.00;0.00;;;18.40;99.90;;;;;;6240346;23;20016;-89